createdAt,value
2023-04-01T00:02:57.092Z,98806.00
2023-04-01T00:07:00.481Z,98813.06
2023-04-01T00:11:04.648Z,98810.91
2023-04-01T00:15:09.430Z,98793.56
2023-04-01T00:19:12.241Z,98804.16
2023-04-01T00:23:15.469Z,98797.34
2023-04-01T00:27:19.589Z,98802.28
2023-04-01T00:31:22.460Z,98803.97
2023-04-01T00:35:25.174Z,98793.91
2023-04-01T00:39:30.623Z,98798.22
2023-04-01T00:43:36.179Z,98796.06
2023-04-01T00:47:39.001Z,98787.69
2023-04-01T00:51:44.114Z,98792.25
2023-04-01T00:55:53.353Z,98790.91
2023-04-01T00:59:57.608Z,98786.81
2023-04-01T01:04:00.725Z,98787.41
2023-04-01T01:08:11.263Z,98779.25
2023-04-01T01:12:17.445Z,98784.19
2023-04-01T01:16:27.976Z,98780.34
2023-04-01T01:21:12.621Z,98782.78
2023-04-01T01:25:34.141Z,98781.38
2023-04-01T01:30:18.876Z,98771.91
2023-04-01T01:34:26.536Z,98777.34
2023-04-01T01:38:35.929Z,98771.41
2023-04-01T01:42:45.841Z,98773.56
2023-04-01T01:46:50.896Z,98769.22
2023-04-01T01:50:54.666Z,98770.34
2023-04-01T01:55:00.324Z,98769.50
2023-04-01T01:59:13.630Z,98772.81
2023-04-01T02:03:19.125Z,98769.84
2023-04-01T02:07:26.504Z,98774.47
2023-04-01T02:11:34.396Z,98779.09
2023-04-01T02:15:43.262Z,98779.59
2023-04-01T02:19:51.606Z,98792.03
2023-04-01T02:23:56.082Z,98789.31
2023-04-01T02:28:02.277Z,98783.66
2023-04-01T02:32:07.626Z,98793.44
2023-04-01T02:36:14.265Z,98781.75
2023-04-01T02:40:18.856Z,98784.47
2023-04-01T02:44:22.980Z,98789.03
2023-04-01T02:48:25.819Z,98791.53
2023-04-01T02:52:29.566Z,98794.16
2023-04-01T02:56:34.423Z,98793.94
2023-04-01T03:00:38.567Z,98792.84
2023-04-01T03:04:41.323Z,98801.78
2023-04-01T03:08:44.569Z,98796.66
2023-04-01T03:12:47.412Z,98801.78
2023-04-01T03:16:51.673Z,98812.09
2023-04-01T03:20:54.503Z,98800.41
2023-04-01T03:24:57.349Z,98803.97
2023-04-01T03:29:00.662Z,98810.41
2023-04-01T03:33:05.102Z,98818.06
2023-04-01T03:37:08.571Z,98825.91
2023-04-01T03:41:14.531Z,98818.56
2023-04-01T03:45:17.682Z,98824.25
2023-04-01T03:49:21.795Z,98822.38
2023-04-01T03:53:24.772Z,98827.00
2023-04-01T03:57:29.011Z,98829.72
2023-04-01T04:01:36.739Z,98825.91
2023-04-01T04:05:48.364Z,98842.72
2023-04-01T04:09:52.545Z,98833.25
2023-04-01T04:13:56.608Z,98846.03
2023-04-01T04:18:00.126Z,98851.47
2023-04-01T04:22:04.586Z,98852.28
2023-04-01T04:26:09.632Z,98848.75
2023-04-01T04:30:13.046Z,98856.59
2023-04-01T04:34:16.524Z,98849.25
2023-04-01T04:38:20.616Z,98866.66
2023-04-01T04:42:23.404Z,98861.47
2023-04-01T04:46:31.299Z,98863.09
2023-04-01T04:50:44.495Z,98864.72
2023-04-01T04:54:48.721Z,98869.06
2023-04-01T04:58:51.596Z,98878.81
2023-04-01T05:02:58.747Z,98887.00
2023-04-01T05:07:01.647Z,98878.81
2023-04-01T05:11:13.106Z,98889.41
2023-04-01T05:15:17.823Z,98890.75
2023-04-01T05:19:20.945Z,98900.53
2023-04-01T05:23:24.547Z,98892.13
2023-04-01T05:27:28.696Z,98898.91
2023-04-01T05:31:31.613Z,98905.94
2023-04-01T05:35:35.112Z,98904.56
2023-04-01T05:39:39.328Z,98913.28
2023-04-01T05:43:44.292Z,98915.72
2023-04-01T05:48:07.455Z,98925.25
2023-04-01T05:52:15.664Z,98932.53
2023-04-01T05:56:18.441Z,98930.88
2023-04-01T06:00:26.608Z,98924.66
2023-04-01T06:04:34.005Z,98921.66
2023-04-01T06:08:37.027Z,98938.78
2023-04-01T06:12:54.801Z,98943.19
2023-04-01T06:17:14.428Z,98948.84
2023-04-01T06:21:53.514Z,98953.47
2023-04-01T06:26:13.163Z,98950.97
2023-04-01T06:30:33.502Z,98956.41
2023-04-01T06:34:56.138Z,98959.88
2023-04-01T06:39:18.817Z,98958.81
2023-04-01T06:43:27.883Z,98954.94
2023-04-01T06:48:04.417Z,98960.59
2023-04-01T06:52:37.548Z,98968.72
2023-04-01T06:57:04.440Z,98973.78
2023-04-01T07:01:12.587Z,98968.09
2023-04-01T07:05:16.993Z,98986.03
2023-04-01T07:09:24.706Z,98983.53
2023-04-01T07:14:00.779Z,98986.50
2023-04-01T07:18:09.066Z,98994.63
2023-04-01T07:22:25.603Z,99002.72
2023-04-01T07:26:39.723Z,99004.88
2023-04-01T07:31:00.908Z,99006.22
2023-04-01T07:35:14.112Z,99014.91
2023-04-01T07:39:28.526Z,99020.13
2023-04-01T07:44:05.309Z,99022.53
2023-04-01T07:48:21.474Z,99028.75
2023-04-01T07:52:34.020Z,99035.75
2023-04-01T07:56:52.052Z,99040.34
2023-04-01T08:01:14.590Z,99048.22
2023-04-01T08:05:28.485Z,99049.84
2023-04-01T08:09:40.874Z,99056.13
2023-04-01T08:14:12.539Z,99068.38
2023-04-01T08:18:47.883Z,99071.59
2023-04-01T08:22:53.819Z,99068.25
2023-04-01T08:27:13.931Z,99071.72
2023-04-01T08:31:21.967Z,99076.53
2023-04-01T08:35:32.434Z,99087.34
2023-04-01T08:39:42.751Z,99086.38
2023-04-01T08:44:15.036Z,99094.38
2023-04-01T08:48:38.911Z,99097.09
2023-04-01T08:53:01.435Z,99099.69
2023-04-01T08:57:12.822Z,99105.22
2023-04-01T09:01:50.475Z,99109.75
2023-04-01T09:06:39.132Z,99114.38
2023-04-01T09:11:07.804Z,99124.44
2023-04-01T09:15:52.124Z,99135.72
2023-04-01T09:20:17.937Z,99138.50
2023-04-01T09:24:50.242Z,99137.50
2023-04-01T09:29:04.144Z,99145.66
2023-04-01T09:33:36.264Z,99144.44
2023-04-01T09:37:54.448Z,99156.59
2023-04-01T09:42:29.342Z,99164.41
2023-04-01T09:47:08.058Z,99166.03
2023-04-01T09:51:25.102Z,99168.75
2023-04-01T09:56:05.783Z,99173.41
2023-04-01T10:00:54.128Z,99180.41
2023-04-01T10:05:33.019Z,99184.94
2023-04-01T10:10:22.279Z,99184.84
2023-04-01T10:14:48.713Z,99188.78
2023-04-01T10:19:06.096Z,99195.22
2023-04-01T10:23:41.998Z,99195.06
2023-04-01T10:28:13.312Z,99208.25
2023-04-01T10:33:23.355Z,99214.44
2023-04-01T10:37:45.978Z,99216.22
2023-04-01T10:42:19.255Z,99218.44
2023-04-01T10:47:27.513Z,99212.50
2023-04-01T10:52:09.444Z,99218.41
2023-04-01T10:56:41.897Z,99217.78
2023-04-01T11:02:10.124Z,99230.91
2023-04-01T11:07:16.166Z,99235.31
2023-04-01T11:11:56.023Z,99233.28
2023-04-01T11:16:36.628Z,99241.16
2023-04-01T11:21:19.198Z,99248.47
2023-04-01T11:25:45.071Z,99255.69
2023-04-01T11:30:20.603Z,99269.22
2023-04-01T11:34:42.125Z,99268.81
2023-04-01T11:38:59.359Z,99275.69
2023-04-01T11:43:33.777Z,99275.19
2023-04-01T11:48:15.425Z,99279.25
2023-04-01T11:52:28.250Z,99288.94
2023-04-01T11:56:54.469Z,99295.94
2023-04-01T12:01:09.505Z,99304.72
2023-04-01T12:05:36.518Z,99308.75
2023-04-01T12:09:48.971Z,99320.50
2023-04-01T12:13:57.966Z,99321.28
2023-04-01T12:18:13.596Z,99324.53
2023-04-01T12:22:35.681Z,99330.59
2023-04-01T12:26:55.318Z,99334.16
2023-04-01T12:31:14.173Z,99345.09
2023-04-01T12:35:25.769Z,99358.28
2023-04-01T12:39:46.314Z,99360.41
2023-04-01T12:44:11.385Z,99361.47
2023-04-01T12:48:54.982Z,99357.66
2023-04-01T12:53:14.078Z,99377.66
2023-04-01T12:57:33.928Z,99372.13
2023-04-01T13:02:10.435Z,99381.28
2023-04-01T13:06:27.469Z,99385.34
2023-04-01T13:10:51.053Z,99399.34
2023-04-01T13:15:34.301Z,99400.03
2023-04-01T13:19:48.617Z,99407.75
2023-04-01T13:24:09.000Z,99423.69
2023-04-01T13:28:20.188Z,99430.31
2023-04-01T13:32:43.392Z,99426.81
2023-04-01T13:37:01.600Z,99434.09
2023-04-01T13:41:16.428Z,99437.94
2023-04-01T13:45:24.243Z,99445.44
2023-04-01T13:49:50.216Z,99451.22
2023-04-01T13:54:06.954Z,99462.22
2023-04-01T13:58:30.928Z,99458.47
2023-04-01T14:02:55.865Z,99468.91
2023-04-01T14:07:10.203Z,99478.84
2023-04-01T14:11:19.080Z,99491.41
2023-04-01T14:15:41.659Z,99489.94
2023-04-01T14:20:16.902Z,99496.09
2023-04-01T14:24:57.916Z,99502.94
2023-04-01T14:29:14.401Z,99504.44
2023-04-01T14:33:30.587Z,99509.28
2023-04-01T14:37:57.766Z,99522.31
2023-04-01T14:42:21.962Z,99528.50
2023-04-01T14:46:50.647Z,99535.69
2023-04-01T14:50:56.616Z,99542.44
2023-04-01T14:55:04.458Z,99547.47
2023-04-01T14:59:11.859Z,99558.66
2023-04-01T15:03:22.004Z,99559.44
2023-04-01T15:08:02.142Z,99566.53
2023-04-01T15:12:17.564Z,99582.09
2023-04-01T15:16:27.819Z,99584.84
2023-04-01T15:21:07.368Z,99588.69
2023-04-01T15:25:28.975Z,99607.28
2023-04-01T15:29:45.517Z,99605.13
2023-04-01T15:34:13.277Z,99616.38
2023-04-01T15:38:29.446Z,99630.91
2023-04-01T15:42:50.037Z,99644.31
2023-04-01T15:46:57.013Z,99647.38
2023-04-01T15:51:13.473Z,99660.19
2023-04-01T15:55:23.013Z,99665.66
2023-04-01T15:59:51.380Z,99675.44
2023-04-01T16:04:08.874Z,99686.06
2023-04-01T16:08:28.544Z,99700.75
2023-04-01T16:12:49.280Z,99710.53
2023-04-01T16:17:09.803Z,99720.34
2023-04-01T16:21:23.670Z,99732.81
2023-04-01T16:25:35.927Z,99733.63
2023-04-01T16:29:47.229Z,99741.22
2023-04-01T16:33:57.023Z,99753.44
2023-04-01T16:38:10.925Z,99755.84
2023-04-01T16:42:23.975Z,99780.84
2023-04-01T16:46:36.235Z,99782.16
2023-04-01T16:50:51.755Z,99798.72
2023-04-01T16:55:01.682Z,99799.22
2023-04-01T16:59:10.813Z,99821.25
2023-04-01T17:03:18.590Z,99825.28
2023-04-01T17:07:30.428Z,99826.88
2023-04-01T17:11:41.245Z,99845.81
2023-04-01T17:15:49.301Z,99852.31
2023-04-01T17:24:19.418Z,99872.56
2023-04-01T17:28:38.444Z,99878.47
2023-04-01T17:32:58.550Z,99897.03
2023-04-01T17:37:20.747Z,99899.66
2023-04-01T17:41:38.772Z,99910.41
2023-04-01T17:45:49.259Z,99921.47
2023-04-01T17:50:00.277Z,99936.88
2023-04-01T17:54:19.261Z,99939.16
2023-04-01T17:58:23.593Z,99952.28
2023-04-01T18:02:36.312Z,99963.41
2023-04-01T18:06:52.780Z,99987.44
2023-04-01T18:11:07.167Z,99995.72
2023-04-01T18:15:21.489Z,100012.19
2023-04-01T18:19:33.805Z,100009.47
2023-04-01T18:23:52.113Z,100030.91
2023-04-01T18:28:18.611Z,100047.63
2023-04-01T18:32:33.345Z,100047.91
2023-04-01T18:36:46.093Z,100066.75
2023-04-01T18:40:53.780Z,100081.13
2023-04-01T18:45:02.159Z,100078.97
2023-04-01T18:49:13.859Z,100094.91
2023-04-01T18:53:25.963Z,100113.66
2023-04-01T18:57:41.063Z,100119.81
2023-04-01T19:01:53.100Z,100141.16
2023-04-01T19:06:01.008Z,100145.53
2023-04-01T19:10:16.629Z,100150.69
2023-04-01T19:14:29.647Z,100165.00
2023-04-01T19:19:12.117Z,100173.13
2023-04-01T19:23:44.660Z,100181.13
2023-04-01T19:27:52.219Z,100191.38
2023-04-01T19:32:06.392Z,100201.22
2023-04-01T19:36:17.097Z,100207.84
2023-04-01T19:40:38.021Z,100221.19
2023-04-01T19:44:57.509Z,100219.34
2023-04-01T19:49:15.378Z,100227.34
2023-04-01T19:53:26.964Z,100236.06
2023-04-01T19:57:40.080Z,100257.97
2023-04-01T20:01:50.614Z,100258.22
2023-04-01T20:06:03.052Z,100278.03
2023-04-01T20:10:10.922Z,100282.13
2023-04-01T20:14:24.363Z,100287.28
2023-04-01T20:18:39.352Z,100297.91
2023-04-01T20:23:01.869Z,100314.84
2023-04-01T20:27:11.555Z,100326.72
2023-04-01T20:31:27.407Z,100335.19
2023-04-01T20:35:46.247Z,100346.44
2023-04-01T20:40:09.777Z,100357.41
2023-04-01T20:44:15.399Z,100370.94
2023-04-01T20:48:43.414Z,100372.09
2023-04-01T20:52:57.984Z,100383.16
2023-04-01T20:57:08.598Z,100391.63
2023-04-01T21:01:22.466Z,100396.53
2023-04-01T21:05:50.825Z,100408.28
2023-04-01T21:10:11.812Z,100422.41
2023-04-01T21:14:42.266Z,100427.69
2023-04-01T21:18:56.292Z,100439.09
2023-04-01T21:23:14.563Z,100448.94
2023-04-01T21:27:28.530Z,100470.00
2023-04-01T21:31:46.274Z,100471.97
2023-04-01T21:36:02.082Z,100487.16
2023-04-01T21:40:39.027Z,100498.28
2023-04-01T21:45:12.186Z,100500.22
2023-04-01T21:49:51.890Z,100520.72
2023-04-01T21:54:37.236Z,100528.22
2023-04-01T21:59:17.788Z,100531.34
2023-04-01T22:03:48.834Z,100549.38
2023-04-01T22:08:01.450Z,100562.84
2023-04-01T22:12:10.511Z,100567.28
2023-04-01T22:16:19.772Z,100573.50
2023-04-01T22:20:30.148Z,100580.84
2023-04-01T22:24:43.139Z,100590.91
2023-04-01T22:28:53.556Z,100601.56
2023-04-01T22:33:04.108Z,100609.88
2023-04-01T22:37:15.089Z,100613.03
2023-04-01T22:41:28.415Z,100613.53
2023-04-01T22:45:58.035Z,100624.84
2023-04-01T22:50:07.703Z,100625.25
2023-04-01T22:54:17.652Z,100635.25
2023-04-01T22:58:26.999Z,100643.41
2023-04-01T23:02:33.511Z,100653.78
2023-04-01T23:06:42.342Z,100659.41
2023-04-01T23:10:55.191Z,100666.47
2023-04-01T23:15:00.146Z,100677.91
2023-04-01T23:19:11.368Z,100672.56
2023-04-01T23:23:26.286Z,100692.53
2023-04-01T23:27:35.990Z,100698.38
2023-04-01T23:31:40.401Z,100704.81
2023-04-01T23:35:49.605Z,100719.59
2023-04-01T23:39:55.377Z,100730.16
2023-04-01T23:44:03.692Z,100725.84
2023-04-01T23:48:07.514Z,100742.91
2023-04-01T23:52:19.081Z,100739.59
2023-04-01T23:56:21.974Z,100759.75
